Signals | Log Session 6528
Paging Controls
KHz ID LSB USB Sec. Fmt. Location S/P ITU Region GSQ Power Logs Notes Latest by Listener Last Heard KM Miles Deg
274 TNA 1020 1021 8.09 ID+4.5" gap Tan Tan MRC af IL48jk 2000 1 2021-11-26 2022-11-18 2789 1733 206
275 O 401 401 3.38 ID+2" gap UNID XUF xx 1 UNID - this is a daytimer at 2 ROU KiwiSDRs, so most likely located in ROU 2021-11-26 2022-09-24
276 SC 404 396 20 Sleptsovskaya / Ingushetia RUS eu LN23lh 1 ALSO HRD WITH 400 Hz OFFSETS 2021-11-26 2022-09-22 3366 2091 88
277 CHT 406 407 5.56 Chiltern ENG eu IO91ro 25 1 2021-11-26 2022-11-23 116 72 261
277 PO 401 1011 15.21 Pulkovo RUS eu KO59et 1 400 / 1020 Hz OFFSETS 2021-11-26 2022-10-30 2013 1251 52
279 SI 400 398 5.12 Simiutaq (Kitaa) GRL na GP60qq 1 Greenland 2021-11-26 2022-11-26 3035 1886 307
280 ND 1024 1023 4.59 ID+5" gap Swidwin POL eu JO73ws 1 EX D-327.0 2021-11-26 2022-10-30 1015 631 71
280 QX 410 407 10.13 DAID Gander NL CAN na GN28px 1000 1 Scheduled Decom with Navcan phase 8 July 14, 2022 2021-11-26 2022-07-01 3874 2407 288
281 CA 400 406 10.38 DAID Cartwright NL CAN na GO13lr 1000 1 2021-11-26 2022-10-21 3810 2367 296
282 NF 1004 1007 4.38 Minsk Mazowiecki / Faktor POL eu KO02ue 1 2021-11-27 2022-10-12 1406 873 79
282 NSR 1018 1028 3.42 Cont. ID Casablanca / Mohamed V MRC af IM63fg 1 2021-11-26 2022-07-01 2172 1350 202
284 AM 1008 1063 10.05 ID+9" gap Almeria ESP eu IM86vv 20 1 2021-11-27 2022-05-10 1675 1040 190
284 FSB 1045 1041 16.51 Fassberg DEU eu JO52cv 25 1 2021-11-26 2022-09-24 629 391 74
284 GNA 1023 1025 5.12 ID+5" gap Gorna BUL eu KN23td 1 *** SENDING TST (NOV 2020) *** NEW ID from 07/2017 - WAS 'GRN' 2021-11-26 2022-11-18 2063 1282 108
284.5 LVK 406 404 7.75 ID+2" gap Namsos / Leirvika NOR eu JP54pk 50 1 MISKEYING LVO (APR 2019) 2021-11-27 2022-05-05 1525 948 18
285 LCF 400 402 6.65 ID+3" gap Linkoping / Malmen SWE eu JO78rh 1 2021-11-26 2022-10-13 1163 723 45
285 UHA 10.11 DAID Quaqtaq QC CAN na FP51eb 500 1 Scheduled Decom with Navcan phase 8 July 14, 2022 2021-11-28 2022-02-07 4244 2637 312
285 URB 1026 1024 7.5 ID+3\" gap Roma / Urbe (RM) ITA eu JN61fw 1 Province : Roma 2021-11-26 2022-10-13 1389 863 137
286.5 TA 26 24 20.32 ID+17" tone Villacoublay / Velizy FRA eu JN18bs 25 1 keyed carrier NDB 2021-11-26 2022-03-28 341 212 167
288.5 AVD 13 25.36 ID+20" tone Avord FRA eu JN17jc 50 1 keyed carrier NDB 2021-11-26 2022-11-01 533 331 166
289 HR 400 403 10.42 ID+7" gap Hericourt FRA eu JN37in 25 1 2021-11-27 2022-10-06 616 383 137
289 RI 1030 1030 8.51 ID+6" gap Rijeka / Krk HRV eu JN75hd 1 2021-11-26 2022-09-24 1235 767 121
289 WR 391 402 15.01 IDx2 + 6" gap Chertovitskoye / Voronezh RUS eu KO91ou 1 2021-11-26 2022-10-26 2588 1608 74
290 GRZ 1021 1020 10.04 ID+3" gap Graz AUT eu JN76rw 80 1 2021-11-26 2022-11-18 1166 725 111
290 ONL 403 401 10.08 ID+6" gap Liege / Bierset BEL eu JO20sq 15 1 2021-11-26 2022-11-23 330 205 109
291 WS 401 409 10.42 ID+8" gap Grenoble / St Geoirs FRA eu JN25ni 1 2021-11-26 2022-07-11 771 479 156
292 MIA 1021 1020 4.62 ID+15" gap Melilla MEL af IM85mh 250 1 EX MLL 2021-11-26 2022-10-28 1859 1155 191
292 NOV 1014 1019 10.08 ID+6" gap Novara (NO) ITA eu JN45jk 1 Province : Novara 2021-11-27 2022-01-15 901 560 138
293 OB 404 401 10.08 ID+7" gap Brussels National BEL eu JO20hw 1 2021-11-26 2022-11-23 260 162 109
293 STE 10.08 ID+8" gap Wien / Schwechat / Steinhof AUT eu JN88cf 1 Decommissioned 2022-09-01 2021-11-26 2022-06-25 1145 711 104
294 VRA 923 1064 15.32 Vrsac SRB eu KN05pc 1 2021-11-26 2022-11-01 1655 1028 108
295 DC 1014 1024 6.55 ID+2" gap Debrecen HNG eu KN07sk 1 SLOW KEYING 2021-11-26 2022-10-12 1542 958 100
295 HD 402 397 20 IDx3+5" Solovki RUS eu KP75ua 1 2021-11-27 2022-01-04 2446 1520 39
295 PT 993 989 9.94 ID+6" tone Skopje MKD eu KN01tv 50 1 2021-11-26 2022-11-18 1897 1178 117
296 MG 1021 1018 10.08 ID+7" gap Ljubljana SVN eu JN76ge 1 2021-11-26 2022-09-26 1157 719 117
297 BD 1016 1022 4.38 ID+2"gap Pazardjik / Malak Chardak BUL eu KN22ig 1 Fast keying 2021-11-26 2022-10-18 2063 1282 111
297 FR 1031 1009 3.93 ID+1" gap Frankfurt DEU eu JO40ib 25 1 2021-11-26 2022-09-24 564 351 106
297 PEP 992 1030 9.88 ID+5" tone Prilep MKD eu KN01ri 1 2021-11-26 2022-11-18 1928 1198 118
299 BO 402 410 10.15 ID+7" gap St Etienne / Boutheon FRA eu JN25dm 1 2021-11-26 2021-12-27 733 455 160
299.5 KN 405 394 10.02 ID+8" gap Svolvaer / Helle / Skrova NOR eu JP78hd 1 2021-11-26 2022-10-26 1959 1217 16
300 CEU 1010 1011 5.5 ID+2" gap Ceuta CEU af IM75iv 1 2021-11-28 2022-06-07 1837 1141 198
300 KD 1087 932 7.04 Kbely / Praha East CZE eu JO70hd 1 Also miskeying as UD 2021-11-27 2022-06-24 961 597 95
300 PV 987 1046 10.12 ID+7" tone Novi Sad / Cenej / Petrovaradin SRB eu JN95rd 1 2021-11-26 2022-10-12 1533 953 111
300 SC 392 409 4.92 Linkoping / Malmen And Saab SWE eu JO78sk 1 2021-11-26 2022-06-26 1175 730 45
300.5 LW 1028 1009 6.91 Koln / Bonn DEU eu JO30pv 25 1 2021-11-26 2022-09-24 439 273 100
301.5 TRE 1014 1022 9.79 ID+7" gap Treviso (TV) ITA eu JN65bo 25 1 Province : Treviso 2021-11-26 2022-09-24 1057 657 126
302 NIK 1011 1020 9.79 ID+6" tone Niksic MNE eu JN92ls 40 1 2021-11-26 2022-10-12 1669 1037 119
302 ROM 402 404 10.3 ID+7" gap Rodez / Marcillac FRA eu JN14hi 1 2021-11-26 2022-10-30 832 517 171
303 KPG 403 403 8.09 ID+4" gap Sogndal / Haukasen / Kaupanger NOR eu JP31oe 1 2021-11-26 2022-10-13 1111 690 17
303 RTT 1019 1017 10.08 ID+8" gap Innsbruck / Rattenberg AUT eu JN57xk 1 2021-11-26 2022-09-24 916 569 117
304 ISD 393 384 7.3 Svalbard / Longyear / Isfjord SVB eu JQ68tb 1 2021-11-28 2022-01-01 2967 1843 5
304 MOK 1014 1026 6.27 Cont. ID Bordj Mokhtar ALG af JL01li 1 2021-11-27 2022-10-16 3382 2101 180
305 LT 400 412 10.2 DAID Alert Bay NU CAN na FR82vm 1000 1 2021-11-26 2022-10-22 3937 2446 348
306.5 AV 5 22.54 ID+18" tone Avord FRA eu JN16lv 1 2021-11-26 2022-03-26 558 347 165
307 DIK 403 397 8.09 ID+5" gap Diekirch LUX eu JN39bu 1 2021-11-26 2022-11-21 411 255 119
307 LA 396 405 20 IDx2 + 5" gap Lazarevskoye RUS eu KN93pw 1 2021-11-26 2022-10-07 2940 1827 91
307.5 PA 999 1010 10.63 ID+6" gap Palma De Mallorca BAL eu JM19jo 1 2021-11-27 2022-10-16 1359 844 173
308 MOJ 1004 1031 9.96 ID+5" tone Mojkovac MNE eu JN92sw 40 1 2021-11-26 2022-10-12 1692 1051 118
308 VT 1017 10.08 ID+8" gap Vitoria ESP eu IN82ot 1 2021-11-26 2022-10-16 1039 645 197
309 DO 402 403 10.19 ID+8" gap Dole / Tavaux FRA eu JN26px 1 2021-11-26 2022-09-24 612 380 148
309 LG 399 398 5.21 Satenas / Tune SWE eu JO68ik 1 2021-11-26 2022-10-26 1042 648 40
310 AMN 1020 1020 8.09 ID+8" gap Almeria ESP eu IM86tu 1 2021-11-27 2022-11-24 1681 1045 190
310 BI 1031 1028 8.3 Kiev / Boryspil UKR eu KO50kj 1 2021-11-26 2021-12-28 2069 1286 82
310 GGN 1019 1035 8.46 ID+4" gap Gorgan IRN as LM76ev 1 2021-11-26 2021-12-08 4431 2753 90
310 NO 1028 8.42 ID+6" gap Kiev / Boryspil UKR eu KO50kg 1 2021-11-27 2021-12-29 2073 1288 82
310 VA 405 400 4.5 ID+2" gap Amal V12 LBY af KL09ml 1 2021-11-26 2022-11-16 2973 1847 138
311 CEL 1021 1020 10.08 ID+7" gap Celle DEU eu JO52ao 25 1 2021-11-26 2022-09-24 614 382 77
311 LMA 401 402 10.08 ID+7" gap Lima / Bruggen DEU eu JO31ei 25 1 2021-11-26 2022-11-23 366 227 95
311 NSN 1039 1040 16.35 ID+12" tone Niederstetten DEU eu JN49xj 25 1 2021-11-26 2022-09-24 677 420 109
311.5 ML 1021 1016 4.72 ID+2" gap Cewice POL eu JO84vj 1 2021-11-26 2022-04-26 1148 713 68
312 BOZ 1019 1021 6.62 ID+1" tone Bozhurishte BUL eu KN12os 1 2021-11-26 2022-11-18 1932 1200 112
312 KBG 403 400 6.48 Karlsborg SWE eu JO78el 1 2021-11-26 2022-10-26 1122 697 43
313 KI 1018 1019 10.08 Klagenfurt AUT eu JN76ep 1 2021-11-26 2022-09-24 1116 693 115
314 OZ 404 398 10.04 DAID Brussels National BEL eu JO20ft 1 2021-11-26 2022-06-27 255 158 113
315 HOL 32 25.98 ID+14" tone Villacoublay / Velizy FRA eu JN08vr 25 1 keyed carrier NDB 2021-11-26 2022-11-23 341 212 171
315 RG 1014 1026 15.01 IDx2 Tunosha RUS eu LO07cn 1 2021-11-26 2022-10-18 2555 1588 60
315 TM 398 407 20 IDx3 Roschino / Tyumen RSE as MO27qf 1 2021-11-26 2022-10-12 4035 2507 55
316 BJO 407 402 9.1 Bjornoya / Bear Isl BRI eu JQ94nm 50 1 2021-11-26 2022-10-12 2660 1652 11
316 BRR 398 401 5.93 Barra SCT eu IO67ga 1 2021-11-26 2022-08-27 805 500 319
316 CAL 1021 1020 10.08 ID+6" gap Cagliari / Elmas SAR eu JM49mf 1 2021-11-26 2022-10-13 1523 946 153
316 EPM 409 388 5.45 Epsom for Heathrow ENG eu IO91th 25 1 2021-11-26 2022-11-18 116 72 244
316 GZP 1021 1018 10.04 ID+5" gap Gazipasa TUR as KM66dh 1 2021-11-27 2022-11-03 2990 1858 112
316 JA 1019 1030 8.17 ID+6" gap Beograd SRB eu KN04fr 1 2021-11-26 2022-10-12 1624 1009 111
316 OE 397 404 8.44 ID+7" gap Dublin IRL eu IO63sk 1 Also heard as OE e 2021-11-26 2022-11-18 544 338 292
316 RE 1032 6 Reykjanesskoli ISL eu HP85sw 1 2021-11-26 2022-09-21 2053 1276 329
316 TNJ 1038 1029 8.45 ID+5" gap Tounj HRV eu JN75qg 1 2021-11-26 2022-09-24 1271 790 119
317 OZ 410 407 8.47 ID+5" gap Kardla EST eu KO18kw 1 2021-11-26 2022-03-27 1579 981 51
317 VS 406 404 10.42 ID+8" gap Valenciennes / Denain FRA eu JO10qi 1 2021-11-26 2022-11-21 223 138 134
318 AGB 1023 1019 7.12 ID+2" gap Augsburg DEU eu JN58lk 25 1 2021-11-26 2022-09-04 792 492 114
318 BE 397 406 10.3 Bordeaux / Merignac FRA eu IN94tu 25 1 2021-11-26 2022-09-26 777 483 188
318 BPL 398 402 8 ID+3.5" gap Blackpool ENG eu IO83ls 1 WAS ON 420.0 2021-11-26 2022-11-18 358 222 310
318 GEN 1024 1019 10.03 ID+7" gap Genova (GE) ITA eu JN44mk 1 SENDING *TEST* - Province : Genova 2021-11-26 2021-12-26 1004 624 141
318 HIG 408 398 10.04 ID+1" gap Bremen DEU eu JO43kb 25 1 2021-11-26 2022-08-27 545 338 71
318 KLP 1029 1036 8.41 ID+4" gap Dubrovnik / Kolocep HRV eu JN92aq 50 1 2021-11-26 2022-10-12 1622 1008 121
318 LE 1021 1020 10.08 ID+8\" gap Luxembourg-Est LUX eu JN39dp 1 2021-11-26 2022-09-24 434 269 120
318 LP 412 409 5.06 Ronneby / Kallinge SWE eu JO76pi 1 2021-11-26 2021-12-29 1053 654 55
318 OTR 1010 1022 8.12 ID+5" gap Bucuresti / Otopeni ROU eu KN34co 1 SLOW KEYING - ALSO HEARD AS PIM, CO & TRO 2021-11-26 2022-10-18 2010 1249 103
319 HJ 1018 7.04 Akureyri / Hjalteyri ISL eu IP05vu 1 2021-11-26 2022-09-21 1904 1183 332